createdAt,value
2018-04-16T00:02:18.196Z,100340.25
2018-04-16T00:04:46.705Z,100339.30
2018-04-16T00:07:15.211Z,100334.12
2018-04-16T00:09:43.756Z,100333.19
2018-04-16T00:12:12.293Z,100336.66
2018-04-16T00:14:40.769Z,100333.59
2018-04-16T00:17:09.272Z,100311.70
2018-04-16T00:19:37.793Z,100318.80
2018-04-16T00:22:06.259Z,100326.92
2018-04-16T00:24:34.792Z,100318.22
2018-04-16T00:27:03.316Z,100320.84
2018-04-16T00:29:31.808Z,100311.91
2018-04-16T00:32:05.752Z,100314.38
2018-04-16T00:34:39.917Z,100309.03
2018-04-16T00:37:13.908Z,100314.58
2018-04-16T00:39:48.062Z,100310.95
2018-04-16T00:42:22.756Z,100314.77
2018-04-16T00:44:56.829Z,100318.18
2018-04-16T00:47:30.866Z,100317.64
2018-04-16T00:50:04.853Z,100318.95
2018-04-16T00:52:38.696Z,100324.54
2018-04-16T00:55:12.827Z,100323.72
2018-04-16T00:57:46.788Z,100330.19
2018-04-16T01:00:20.836Z,100318.05
2018-04-16T01:06:00.945Z,100308.05
2018-04-16T01:08:35.044Z,100304.53
2018-04-16T01:11:08.966Z,100315.33
2018-04-16T01:13:43.008Z,100309.76
2018-04-16T01:16:16.950Z,100313.56
2018-04-16T01:18:51.084Z,100309.44
2018-04-16T01:21:25.081Z,100303.70
2018-04-16T01:23:59.192Z,100312.36
2018-04-16T01:26:33.288Z,100310.64
2018-04-16T01:29:07.283Z,100304.13
2018-04-16T01:31:41.371Z,100307.67
2018-04-16T01:34:15.580Z,100311.34
2018-04-16T01:36:49.573Z,100311.94
2018-04-16T01:39:23.669Z,100296.46
2018-04-16T01:44:56.932Z,100298.05
2018-04-16T01:47:31.074Z,100285.98
2018-04-16T01:50:05.080Z,100289.20
2018-04-16T01:52:39.200Z,100288.62
2018-04-16T01:55:13.128Z,100286.30
2018-04-16T01:57:47.112Z,100296.11
2018-04-16T02:00:21.104Z,100302.27
2018-04-16T02:02:55.184Z,100296.19
2018-04-16T02:05:29.261Z,100283.48
2018-04-16T02:08:03.161Z,100289.84
2018-04-16T02:10:37.165Z,100283.95
2018-04-16T02:13:11.256Z,100267.52
2018-04-16T02:15:45.202Z,100280.22
2018-04-16T02:18:19.093Z,100287.43
2018-04-16T02:20:53.174Z,100284.35
2018-04-16T02:23:27.326Z,100286.66
2018-04-16T02:26:01.407Z,100294.77
2018-04-16T02:28:35.516Z,100294.72
2018-04-16T02:31:09.579Z,100294.55
2018-04-16T02:33:43.480Z,100289.47
2018-04-16T02:36:17.631Z,100289.41
2018-04-16T02:38:51.587Z,100284.61
2018-04-16T02:41:25.743Z,100284.58
2018-04-16T02:43:59.852Z,100288.52
2018-04-16T02:46:33.960Z,100283.98
2018-04-16T02:49:07.940Z,100260.80
2018-04-16T02:51:42.138Z,100282.80
2018-04-16T02:54:16.244Z,100288.54
2018-04-16T02:56:50.373Z,100279.97
2018-04-16T02:59:24.519Z,100269.67
2018-04-16T03:01:58.624Z,100272.04
2018-04-16T03:04:32.604Z,100272.34
2018-04-16T03:07:06.496Z,100273.63
2018-04-16T03:09:40.295Z,100272.34
2018-04-16T03:12:14.411Z,100266.17
2018-04-16T03:14:48.562Z,100255.95
2018-04-16T03:17:22.672Z,100274.87
2018-04-16T03:19:56.713Z,100264.63
2018-04-16T03:22:30.836Z,100258.32
2018-04-16T03:25:04.932Z,100261.94
2018-04-16T03:27:39.054Z,100263.58
2018-04-16T03:33:18.069Z,100264.56
2018-04-16T03:35:52.338Z,100267.59
2018-04-16T03:38:26.222Z,100267.66
2018-04-16T03:41:00.081Z,100272.14
2018-04-16T03:43:34.091Z,100263.20
2018-04-16T03:46:08.052Z,100253.34
2018-04-16T03:48:42.100Z,100264.33
2018-04-16T03:54:09.570Z,100256.25
2018-04-16T03:56:38.076Z,100259.32
2018-04-16T03:59:06.564Z,100253.27
2018-04-16T04:01:35.077Z,100254.53
2018-04-16T04:04:03.574Z,100253.94
2018-04-16T04:06:32.057Z,100251.58
2018-04-16T04:09:00.508Z,100251.22
2018-04-16T04:11:29.069Z,100255.89
2018-04-16T04:13:57.544Z,100248.62
2018-04-16T04:16:26.025Z,100253.52
2018-04-16T04:18:54.524Z,100252.48
2018-04-16T04:21:23.037Z,100259.27
2018-04-16T04:24:03.124Z,100254.83
2018-04-16T04:26:43.144Z,100259.14
2018-04-16T04:29:23.384Z,100257.91
2018-04-16T04:31:51.844Z,100270.52
2018-04-16T04:34:20.324Z,100277.06
2018-04-16T04:36:48.832Z,100281.50
2018-04-16T04:39:17.344Z,100289.23
2018-04-16T04:41:45.865Z,100292.78
2018-04-16T04:44:14.324Z,100293.41
2018-04-16T04:46:42.789Z,100282.81
2018-04-16T04:49:11.291Z,100284.00
2018-04-16T04:51:39.757Z,100302.99
2018-04-16T04:54:08.282Z,100301.37
2018-04-16T04:56:36.792Z,100286.03
2018-04-16T04:59:05.304Z,100278.58
2018-04-16T05:01:33.809Z,100276.35
2018-04-16T05:04:02.289Z,100267.23
2018-04-16T05:06:30.854Z,100261.41
2018-04-16T05:09:00.359Z,100265.17
2018-04-16T05:11:28.884Z,100278.56
2018-04-16T05:13:58.064Z,100278.73
2018-04-16T05:16:26.599Z,100284.17
2018-04-16T05:18:55.087Z,100300.36
2018-04-16T05:21:23.565Z,100294.56
2018-04-16T05:23:53.194Z,100298.84
2018-04-16T05:26:21.676Z,100301.08
2018-04-16T05:28:50.212Z,100287.86
2018-04-16T05:31:18.736Z,100291.17
2018-04-16T05:33:47.209Z,100287.98
2018-04-16T05:36:15.733Z,100287.87
2018-04-16T05:38:44.281Z,100283.30
2018-04-16T05:41:12.907Z,100293.59
2018-04-16T05:43:41.434Z,100271.83
2018-04-16T05:46:09.921Z,100287.63
2018-04-16T05:48:38.444Z,100281.70
2018-04-16T05:51:06.968Z,100286.92
2018-04-16T05:53:35.456Z,100285.21
2018-04-16T05:56:03.976Z,100255.83
2018-04-16T05:58:32.495Z,100274.78
2018-04-16T06:01:00.985Z,100268.03
2018-04-16T06:03:29.500Z,100263.56
2018-04-16T06:05:57.966Z,100278.11
2018-04-16T06:08:26.501Z,100284.31
2018-04-16T06:10:55.018Z,100277.09
2018-04-16T06:13:23.528Z,100278.05
2018-04-16T06:15:51.996Z,100285.63
2018-04-16T06:18:20.526Z,100284.70
2018-04-16T06:20:49.001Z,100292.23
2018-04-16T06:23:17.469Z,100280.70
2018-04-16T06:25:46.012Z,100260.84
2018-04-16T06:28:14.544Z,100264.42
2018-04-16T06:30:43.125Z,100269.05
2018-04-16T06:33:11.592Z,100269.94
2018-04-16T06:35:40.125Z,100276.58
2018-04-16T06:38:08.784Z,100268.60
2018-04-16T06:40:37.300Z,100269.23
2018-04-16T06:43:05.802Z,100266.34
2018-04-16T06:45:34.335Z,100268.29
2018-04-16T06:48:02.868Z,100268.20
2018-04-16T06:50:31.349Z,100275.97
2018-04-16T06:53:01.028Z,100278.73
2018-04-16T06:55:29.550Z,100269.70
2018-04-16T06:57:58.033Z,100273.09
2018-04-16T07:00:26.567Z,100271.81
2018-04-16T07:02:55.109Z,100275.48
2018-04-16T07:05:23.574Z,100269.80
2018-04-16T07:07:52.054Z,100281.37
2018-04-16T07:10:20.554Z,100274.56
2018-04-16T07:12:49.030Z,100275.64
2018-04-16T07:15:17.548Z,100274.32
2018-04-16T07:17:46.048Z,100271.11
2018-04-16T07:20:14.611Z,100274.91
2018-04-16T07:22:43.110Z,100274.80
2018-04-16T07:25:11.621Z,100269.84
2018-04-16T07:27:40.094Z,100278.52
2018-04-16T07:30:08.645Z,100283.33
2018-04-16T07:32:37.145Z,100268.51
2018-04-16T07:35:06.249Z,100263.19
2018-04-16T07:37:34.729Z,100263.44
2018-04-16T07:40:03.263Z,100276.89
2018-04-16T07:42:31.789Z,100266.37
2018-04-16T07:45:00.297Z,100267.44
2018-04-16T07:47:28.800Z,100267.03
2018-04-16T07:49:57.296Z,100265.70
2018-04-16T07:52:25.808Z,100263.73
2018-04-16T07:54:54.412Z,100263.22
2018-04-16T07:57:22.895Z,100259.02
2018-04-16T07:59:51.389Z,100265.06
2018-04-16T08:02:19.861Z,100275.25
2018-04-16T08:04:48.333Z,100281.03
2018-04-16T08:07:16.829Z,100289.98
2018-04-16T08:09:45.296Z,100274.80
2018-04-16T08:12:13.757Z,100303.88
2018-04-16T08:14:42.244Z,100294.69
2018-04-16T08:17:10.767Z,100293.97
2018-04-16T08:19:39.268Z,100285.98
2018-04-16T08:22:07.729Z,100290.76
2018-04-16T08:24:36.240Z,100287.02
2018-04-16T08:27:04.759Z,100286.88
2018-04-16T08:29:33.247Z,100286.42
2018-04-16T08:32:01.788Z,100285.42
2018-04-16T08:34:30.261Z,100278.43
2018-04-16T08:36:58.781Z,100265.47
2018-04-16T08:39:27.281Z,100258.14
2018-04-16T08:41:55.799Z,100254.17
2018-04-16T08:44:24.269Z,100247.13
2018-04-16T08:46:52.735Z,100247.47
2018-04-16T08:49:21.245Z,100244.50
2018-04-16T08:51:49.744Z,100238.11
2018-04-16T08:54:18.224Z,100242.18
2018-04-16T08:56:46.757Z,100233.33
2018-04-16T08:59:15.240Z,100235.33
2018-04-16T09:01:43.795Z,100238.73
2018-04-16T09:04:12.281Z,100236.73
2018-04-16T09:06:40.787Z,100245.11
2018-04-16T09:09:09.288Z,100236.59
2018-04-16T09:11:37.823Z,100238.00
2018-04-16T09:14:06.387Z,100229.52
2018-04-16T09:16:34.870Z,100237.64
2018-04-16T09:19:03.379Z,100225.88
2018-04-16T09:21:31.850Z,100218.48
2018-04-16T09:24:00.333Z,100218.06
2018-04-16T09:26:28.796Z,100207.36
2018-04-16T09:28:57.274Z,100193.34
2018-04-16T09:31:25.845Z,100196.91
2018-04-16T09:33:54.339Z,100201.88
2018-04-16T09:36:22.860Z,100191.73
2018-04-16T09:38:51.360Z,100185.42
2018-04-16T09:41:19.837Z,100180.22
2018-04-16T09:43:48.342Z,100172.12
2018-04-16T09:46:16.854Z,100183.11
2018-04-16T09:48:45.324Z,100202.30
2018-04-16T09:51:13.852Z,100192.67
2018-04-16T09:53:42.357Z,100183.91
2018-04-16T09:56:10.866Z,100169.92
2018-04-16T09:58:39.321Z,100177.42
2018-04-16T10:01:13.412Z,100169.27
2018-04-16T10:03:41.879Z,100160.01
2018-04-16T10:06:10.353Z,100171.88
2018-04-16T10:08:38.832Z,100171.02
2018-04-16T10:11:07.321Z,100172.87
2018-04-16T10:13:36.725Z,100178.75
2018-04-16T10:16:05.229Z,100167.73
2018-04-16T10:18:33.697Z,100172.89
2018-04-16T10:21:02.228Z,100185.31
2018-04-16T10:23:30.690Z,100181.47
2018-04-16T10:25:59.250Z,100173.05
2018-04-16T10:28:27.709Z,100184.89
2018-04-16T10:30:56.348Z,100190.67
2018-04-16T10:33:24.900Z,100183.50
2018-04-16T10:35:53.406Z,100189.03
2018-04-16T10:38:21.904Z,100184.03
2018-04-16T10:40:50.425Z,100170.05
2018-04-16T10:43:18.909Z,100171.76
2018-04-16T10:45:47.377Z,100173.08
2018-04-16T10:48:15.912Z,100170.73
2018-04-16T10:50:44.456Z,100163.38
2018-04-16T10:53:12.921Z,100170.81
2018-04-16T10:55:41.509Z,100165.48
2018-04-16T10:58:09.976Z,100163.55
2018-04-16T11:00:38.609Z,100163.55
2018-04-16T11:03:07.214Z,100143.19
2018-04-16T11:05:35.701Z,100155.47
2018-04-16T11:08:04.227Z,100158.63
2018-04-16T11:10:32.748Z,100158.34
2018-04-16T11:13:01.210Z,100154.81
2018-04-16T11:15:29.720Z,100154.18
2018-04-16T11:17:58.240Z,100151.72
2018-04-16T11:20:26.705Z,100146.91
2018-04-16T11:22:55.240Z,100122.86
2018-04-16T11:25:23.720Z,100136.36
2018-04-16T11:27:52.248Z,100133.36
2018-04-16T11:30:20.748Z,100143.83
2018-04-16T11:32:49.213Z,100138.98
2018-04-16T11:35:17.740Z,100139.05
2018-04-16T11:37:46.876Z,100130.26
2018-04-16T11:40:15.376Z,100143.58
2018-04-16T11:42:43.853Z,100142.01
2018-04-16T11:45:12.395Z,100132.39
2018-04-16T11:47:40.846Z,100131.30
2018-04-16T11:50:09.335Z,100127.01
2018-04-16T11:52:37.893Z,100117.39
2018-04-16T11:55:06.355Z,100113.88
2018-04-16T11:57:34.961Z,100113.44
2018-04-16T12:00:03.491Z,100116.92
2018-04-16T12:02:32.172Z,100111.20
2018-04-16T12:05:00.679Z,100092.13
2018-04-16T12:07:29.204Z,100098.29
2018-04-16T12:09:57.656Z,100099.83
2018-04-16T12:12:26.158Z,100077.20
2018-04-16T12:14:54.634Z,100097.64
2018-04-16T12:17:23.326Z,100084.84
2018-04-16T12:19:51.841Z,100089.75
2018-04-16T12:22:20.441Z,100078.94
2018-04-16T12:24:48.961Z,100076.22
2018-04-16T12:27:17.420Z,100072.22
2018-04-16T12:29:45.896Z,100046.47
2018-04-16T12:32:14.405Z,100078.30
2018-04-16T12:34:42.887Z,100070.66
2018-04-16T12:37:11.377Z,100061.91
2018-04-16T12:39:39.832Z,100061.36
2018-04-16T12:42:08.340Z,100054.78
2018-04-16T12:44:36.805Z,100059.49
2018-04-16T12:47:05.307Z,100056.23
2018-04-16T12:49:33.805Z,100053.55
2018-04-16T12:52:02.269Z,100061.17
2018-04-16T12:54:30.784Z,100033.48
2018-04-16T12:56:59.269Z,100053.53
2018-04-16T12:59:27.764Z,100035.77
2018-04-16T13:01:56.292Z,100030.09
2018-04-16T13:04:24.845Z,100008.52
2018-04-16T13:06:53.309Z,100015.80
2018-04-16T13:09:22.457Z,100012.73
2018-04-16T13:11:50.948Z,100026.45
2018-04-16T13:14:19.385Z,100033.78
2018-04-16T13:16:47.888Z,100046.59
2018-04-16T13:19:16.385Z,100054.59
2018-04-16T13:21:44.909Z,100056.78
2018-04-16T13:24:14.159Z,100030.18
2018-04-16T13:26:42.621Z,100016.70
2018-04-16T13:29:11.125Z,100004.80
2018-04-16T13:31:39.630Z,99996.67
2018-04-16T13:34:08.126Z,100002.36
2018-04-16T13:36:36.589Z,100025.48
2018-04-16T13:39:05.128Z,100013.66
2018-04-16T13:41:33.637Z,100028.03
2018-04-16T13:44:02.153Z,100012.21
2018-04-16T13:46:30.657Z,100019.54
2018-04-16T13:48:59.172Z,100007.80
2018-04-16T13:51:27.698Z,99996.19
2018-04-16T13:53:56.156Z,100007.12
2018-04-16T13:56:24.672Z,100003.23
2018-04-16T13:58:53.162Z,99999.75
2018-04-16T14:01:21.695Z,100003.80
2018-04-16T14:03:50.229Z,100002.50
2018-04-16T14:06:18.725Z,99992.27
2018-04-16T14:08:47.184Z,99998.05
2018-04-16T14:11:15.752Z,99981.20
2018-04-16T14:13:44.220Z,99968.22
2018-04-16T14:16:12.774Z,99993.31
2018-04-16T14:18:41.260Z,99996.88
2018-04-16T14:21:09.754Z,100007.36
2018-04-16T14:23:38.249Z,100007.64
2018-04-16T14:26:06.716Z,100005.73
2018-04-16T14:28:35.208Z,99991.05
2018-04-16T14:31:03.692Z,99983.83
2018-04-16T14:33:32.208Z,99990.97
2018-04-16T14:36:00.693Z,99982.62
2018-04-16T14:38:29.194Z,99984.41
2018-04-16T14:40:57.703Z,99993.22
2018-04-16T14:43:26.185Z,99995.23
2018-04-16T14:45:54.675Z,100002.50
2018-04-16T14:48:23.129Z,99993.78
2018-04-16T14:50:51.635Z,100002.09
2018-04-16T14:53:20.121Z,99979.27
2018-04-16T14:55:48.671Z,99998.14
2018-04-16T14:58:17.140Z,100011.91
2018-04-16T15:00:45.593Z,100014.24
2018-04-16T15:03:14.127Z,100008.52
2018-04-16T15:05:42.586Z,100006.45
2018-04-16T15:08:11.043Z,99996.78
2018-04-16T15:10:39.544Z,99983.66
2018-04-16T15:13:08.044Z,99989.45
2018-04-16T15:15:36.492Z,100004.36
2018-04-16T15:18:05.057Z,100006.13
2018-04-16T15:20:33.552Z,99995.33
2018-04-16T15:23:02.025Z,99969.08
2018-04-16T15:25:30.516Z,99983.28
2018-04-16T15:27:59.010Z,99990.16
2018-04-16T15:30:27.482Z,99976.48
2018-04-16T15:32:55.976Z,99950.39
2018-04-16T15:35:24.431Z,99967.55
2018-04-16T15:37:52.932Z,99997.88
2018-04-16T15:40:21.384Z,99999.81
2018-04-16T15:42:49.884Z,99964.77
2018-04-16T15:45:18.377Z,99980.45
2018-04-16T15:47:46.876Z,99983.25
2018-04-16T15:50:15.324Z,99973.91
2018-04-16T15:52:43.841Z,99984.22
2018-04-16T15:55:12.341Z,99990.67
2018-04-16T15:57:40.805Z,99994.16
2018-04-16T16:00:09.315Z,100004.95
2018-04-16T16:02:37.818Z,99995.75
2018-04-16T16:05:06.323Z,99968.88
2018-04-16T16:07:34.759Z,99961.38
2018-04-16T16:10:03.241Z,99968.34
2018-04-16T16:12:31.724Z,99971.10
2018-04-16T16:15:00.172Z,99964.56
2018-04-16T16:17:28.679Z,99961.94
2018-04-16T16:19:57.133Z,99961.55
2018-04-16T16:22:25.598Z,99977.17
2018-04-16T16:24:54.085Z,99982.27
2018-04-16T16:27:22.561Z,99990.23
2018-04-16T16:29:51.016Z,100000.11
2018-04-16T16:32:19.507Z,99993.52
2018-04-16T16:34:47.962Z,99987.36
2018-04-16T16:37:16.447Z,99992.30
2018-04-16T16:39:44.932Z,99981.89
2018-04-16T16:42:13.382Z,99987.94
2018-04-16T16:44:41.868Z,99981.36
2018-04-16T16:47:10.325Z,99999.73
2018-04-16T16:49:38.829Z,99999.19
2018-04-16T16:52:07.297Z,100006.98
2018-04-16T16:54:35.806Z,100013.98
2018-04-16T16:57:04.333Z,100008.92
2018-04-16T16:59:32.893Z,100014.41
2018-04-16T17:02:01.388Z,100021.08
2018-04-16T17:04:29.857Z,100019.70
2018-04-16T17:06:58.352Z,100035.72
2018-04-16T17:09:26.807Z,100040.78
2018-04-16T17:11:55.308Z,100032.03
2018-04-16T17:14:23.829Z,100043.67
2018-04-16T17:16:52.283Z,100042.69
2018-04-16T17:19:20.772Z,100039.12
2018-04-16T17:21:49.213Z,100038.17
2018-04-16T17:24:17.695Z,100032.69
2018-04-16T17:26:46.201Z,100027.23
2018-04-16T17:29:14.656Z,100028.59
2018-04-16T17:31:43.164Z,100028.59
2018-04-16T17:34:11.629Z,100035.42
2018-04-16T17:36:40.083Z,100033.09
2018-04-16T17:39:08.591Z,100030.77
2018-04-16T17:41:37.050Z,100039.23
2018-04-16T17:44:05.508Z,100048.16
2018-04-16T17:46:34.009Z,100049.78
2018-04-16T17:49:02.464Z,100053.63
2018-04-16T17:51:30.955Z,100061.98
2018-04-16T17:53:59.426Z,100070.17
2018-04-16T17:56:27.920Z,100075.68
2018-04-16T17:58:56.415Z,100081.56
2018-04-16T18:01:24.904Z,100072.50
2018-04-16T18:03:53.392Z,100086.89
2018-04-16T18:06:21.846Z,100091.81
2018-04-16T18:08:50.340Z,100098.40
2018-04-16T18:11:18.846Z,100092.63
2018-04-16T18:13:47.318Z,100094.55
2018-04-16T18:16:15.812Z,100091.89
2018-04-16T18:18:44.349Z,100094.48
2018-04-16T18:21:12.854Z,100108.87
2018-04-16T18:23:41.356Z,100101.87
2018-04-16T18:26:09.877Z,100097.66
2018-04-16T18:28:38.337Z,100093.00
2018-04-16T18:31:06.798Z,100084.05
2018-04-16T18:33:35.293Z,100081.20
2018-04-16T18:36:03.821Z,100075.02
2018-04-16T18:38:33.082Z,100055.05
2018-04-16T18:41:01.540Z,100051.05
2018-04-16T18:43:30.036Z,100068.59
2018-04-16T18:45:58.502Z,100069.03
2018-04-16T18:48:26.996Z,100070.92
2018-04-16T18:50:55.480Z,100070.52
2018-04-16T18:53:23.995Z,100066.55
2018-04-16T18:55:52.496Z,100060.53
2018-04-16T18:58:21.000Z,100068.73
2018-04-16T19:00:49.462Z,100069.69
2018-04-16T19:03:17.920Z,100061.45
2018-04-16T19:05:46.424Z,100052.69
2018-04-16T19:08:14.901Z,100037.78
2018-04-16T19:10:43.400Z,100027.20
2018-04-16T19:13:11.911Z,100009.98
2018-04-16T19:15:40.396Z,100003.69
2018-04-16T19:18:08.900Z,100001.06
2018-04-16T19:20:42.840Z,100015.55
2018-04-16T19:23:11.339Z,100043.83
2018-04-16T19:25:39.806Z,100072.39
2018-04-16T19:28:13.809Z,100069.40
2018-04-16T19:30:42.277Z,100052.10
2018-04-16T19:33:16.185Z,100078.73
2018-04-16T19:35:44.684Z,100062.58
2018-04-16T19:38:13.161Z,100058.30
2018-04-16T19:40:41.671Z,100068.52
2018-04-16T19:43:10.128Z,100068.05
2018-04-16T19:45:38.584Z,100055.51
2018-04-16T19:48:07.049Z,100055.92
2018-04-16T19:50:35.560Z,100061.37
2018-04-16T19:53:04.032Z,100045.21
2018-04-16T19:55:38.019Z,100042.08
2018-04-16T19:58:12.124Z,100035.64
2018-04-16T20:00:40.582Z,100025.59
2018-04-16T20:03:14.556Z,100030.75
2018-04-16T20:05:43.036Z,100030.50
2018-04-16T20:08:11.533Z,100030.23
2018-04-16T20:10:40.032Z,100025.19
2018-04-16T20:13:08.496Z,100019.48
2018-04-16T20:15:36.984Z,100027.17
2018-04-16T20:18:05.455Z,100011.29
2018-04-16T20:20:33.952Z,99999.89
2018-04-16T20:23:02.443Z,99999.88
2018-04-16T20:25:30.990Z,99998.19
2018-04-16T20:27:59.440Z,99992.20
2018-04-16T20:30:27.898Z,99986.98
2018-04-16T20:32:56.386Z,99990.00
2018-04-16T20:35:24.856Z,99987.70
2018-04-16T20:37:53.353Z,99996.62
2018-04-16T20:40:21.808Z,99985.25
2018-04-16T20:42:50.293Z,99982.54
2018-04-16T20:45:18.752Z,99986.46
2018-04-16T20:47:47.248Z,99977.16
2018-04-16T20:50:15.742Z,99972.34
2018-04-16T20:52:44.241Z,99979.58
2018-04-16T20:55:12.732Z,99972.24
2018-04-16T20:57:41.189Z,99972.31
2018-04-16T21:00:09.680Z,99959.05
2018-04-16T21:02:38.128Z,99971.25
2018-04-16T21:05:06.622Z,99974.74
2018-04-16T21:07:35.073Z,99978.16
2018-04-16T21:10:03.657Z,99964.69
2018-04-16T21:12:32.164Z,99956.69
2018-04-16T21:15:00.651Z,99962.25
2018-04-16T21:17:29.096Z,99962.70
2018-04-16T21:19:57.588Z,99956.30
2018-04-16T21:22:26.044Z,99970.20
2018-04-16T21:24:54.529Z,99970.28
2018-04-16T21:27:23.017Z,99960.87
2018-04-16T21:29:51.473Z,99961.62
2018-04-16T21:32:19.962Z,99962.87
2018-04-16T21:34:48.413Z,99963.55
2018-04-16T21:37:16.899Z,99975.40
2018-04-16T21:39:45.349Z,99977.02
2018-04-16T21:42:13.858Z,99964.41
2018-04-16T21:44:42.316Z,99962.55
2018-04-16T21:47:10.817Z,99963.44
2018-04-16T21:49:39.284Z,99969.64
2018-04-16T21:52:07.734Z,99943.71
2018-04-16T21:54:36.254Z,99946.28
2018-04-16T21:57:04.715Z,99943.48
2018-04-16T21:59:33.217Z,99925.36
2018-04-16T22:02:01.704Z,99931.15
2018-04-16T22:04:30.188Z,99945.08
2018-04-16T22:06:58.674Z,99936.89
2018-04-16T22:09:27.128Z,99942.82
2018-04-16T22:11:55.621Z,99925.87
2018-04-16T22:14:24.064Z,99949.41
2018-04-16T22:16:52.525Z,99942.36
2018-04-16T22:19:21.016Z,99946.24
2018-04-16T22:21:49.500Z,99949.14
2018-04-16T22:24:17.971Z,99948.06
2018-04-16T22:26:46.496Z,99943.70
2018-04-16T22:29:15.020Z,99950.05
2018-04-16T22:31:43.480Z,99930.38
2018-04-16T22:34:11.952Z,99939.23
2018-04-16T22:36:40.458Z,99947.84
2018-04-16T22:39:08.945Z,99949.78
2018-04-16T22:41:37.399Z,99939.98
2018-04-16T22:44:05.916Z,99931.87
2018-04-16T22:46:34.369Z,99936.16
2018-04-16T22:49:02.870Z,99946.61
2018-04-16T22:51:31.336Z,99946.31
2018-04-16T22:53:59.788Z,99954.61
2018-04-16T22:56:28.280Z,99945.95
2018-04-16T22:58:56.728Z,99945.38
2018-04-16T23:01:25.309Z,99955.31
2018-04-16T23:03:53.769Z,99953.06
2018-04-16T23:06:22.234Z,99947.91
2018-04-16T23:08:50.725Z,99950.02
2018-04-16T23:11:19.214Z,99938.52
2018-04-16T23:13:47.689Z,99952.16
2018-04-16T23:16:16.212Z,99952.72
2018-04-16T23:18:44.702Z,99943.39
2018-04-16T23:21:13.161Z,99955.61
2018-04-16T23:23:41.681Z,99953.45
2018-04-16T23:26:10.141Z,99965.27
2018-04-16T23:28:38.680Z,99952.34
2018-04-16T23:31:07.148Z,99965.05
2018-04-16T23:33:35.699Z,99960.55
2018-04-16T23:36:04.176Z,99977.27
2018-04-16T23:38:32.636Z,99985.97
2018-04-16T23:41:01.141Z,99982.48
2018-04-16T23:43:29.595Z,99991.05
2018-04-16T23:45:58.118Z,100001.00
2018-04-16T23:48:26.610Z,100002.77
2018-04-16T23:50:55.062Z,100000.89
2018-04-16T23:53:23.532Z,100009.51
2018-04-16T23:55:52.033Z,100020.28
2018-04-16T23:58:20.621Z,100022.00
